sensor_id;sensor_type;location;lat;lon;timestamp;temperature;humidity
36654;DHT22;22650;49.350;20.898;2024-03-02T00:01:00;7.40;99.90
36654;DHT22;22650;49.350;20.898;2024-03-02T00:03:36;7.40;99.90
36654;DHT22;22650;49.350;20.898;2024-03-02T00:06:10;7.40;99.90
36654;DHT22;22650;49.350;20.898;2024-03-02T00:08:44;7.40;99.90
36654;DHT22;22650;49.350;20.898;2024-03-02T00:11:18;7.40;99.90
36654;DHT22;22650;49.350;20.898;2024-03-02T00:13:55;7.40;99.90
36654;DHT22;22650;49.350;20.898;2024-03-02T00:16:30;7.40;99.90
36654;DHT22;22650;49.350;20.898;2024-03-02T00:19:05;7.40;99.90
36654;DHT22;22650;49.350;20.898;2024-03-02T00:21:40;7.40;99.90
36654;DHT22;22650;49.350;20.898;2024-03-02T00:24:20;7.40;99.90
36654;DHT22;22650;49.350;20.898;2024-03-02T00:26:54;7.40;99.90
36654;DHT22;22650;49.350;20.898;2024-03-02T00:29:29;7.30;99.90
36654;DHT22;22650;49.350;20.898;2024-03-02T00:32:03;7.40;99.90
36654;DHT22;22650;49.350;20.898;2024-03-02T00:34:36;7.30;99.90
36654;DHT22;22650;49.350;20.898;2024-03-02T00:37:11;7.30;99.90
36654;DHT22;22650;49.350;20.898;2024-03-02T00:39:49;7.20;99.90
36654;DHT22;22650;49.350;20.898;2024-03-02T00:42:23;7.20;99.90
36654;DHT22;22650;49.350;20.898;2024-03-02T00:44:58;7.20;99.90
36654;DHT22;22650;49.350;20.898;2024-03-02T00:47:31;7.20;99.90
36654;DHT22;22650;49.350;20.898;2024-03-02T00:50:06;7.20;99.90
36654;DHT22;22650;49.350;20.898;2024-03-02T00:52:54;7.10;99.90
36654;DHT22;22650;49.350;20.898;2024-03-02T00:55:28;7.10;99.90
36654;DHT22;22650;49.350;20.898;2024-03-02T00:58:01;7.10;99.90
36654;DHT22;22650;49.350;20.898;2024-03-02T01:00:36;7.10;99.90
36654;DHT22;22650;49.350;20.898;2024-03-02T01:03:10;7.00;99.90
36654;DHT22;22650;49.350;20.898;2024-03-02T01:05:43;7.00;99.90
36654;DHT22;22650;49.350;20.898;2024-03-02T01:08:17;7.00;99.90
36654;DHT22;22650;49.350;20.898;2024-03-02T01:10:50;7.00;99.90
36654;DHT22;22650;49.350;20.898;2024-03-02T01:13:24;6.90;99.90
36654;DHT22;22650;49.350;20.898;2024-03-02T01:16:00;6.90;99.90
36654;DHT22;22650;49.350;20.898;2024-03-02T01:18:34;6.90;99.90
36654;DHT22;22650;49.350;20.898;2024-03-02T01:21:08;6.90;99.90
36654;DHT22;22650;49.350;20.898;2024-03-02T01:23:41;6.90;99.90
36654;DHT22;22650;49.350;20.898;2024-03-02T01:26:15;6.90;99.90
36654;DHT22;22650;49.350;20.898;2024-03-02T01:28:49;6.90;99.90
36654;DHT22;22650;49.350;20.898;2024-03-02T01:31:24;6.90;99.90
36654;DHT22;22650;49.350;20.898;2024-03-02T01:33:57;6.90;99.90
36654;DHT22;22650;49.350;20.898;2024-03-02T01:36:31;6.90;99.90
36654;DHT22;22650;49.350;20.898;2024-03-02T01:39:05;6.90;99.90
36654;DHT22;22650;49.350;20.898;2024-03-02T01:41:41;6.80;99.90
36654;DHT22;22650;49.350;20.898;2024-03-02T01:44:15;6.80;99.90
36654;DHT22;22650;49.350;20.898;2024-03-02T01:46:50;6.80;99.90
36654;DHT22;22650;49.350;20.898;2024-03-02T01:49:24;6.80;99.90
36654;DHT22;22650;49.350;20.898;2024-03-02T01:51:57;6.80;99.90
36654;DHT22;22650;49.350;20.898;2024-03-02T01:54:31;6.80;99.90
36654;DHT22;22650;49.350;20.898;2024-03-02T01:57:05;6.80;99.90
36654;DHT22;22650;49.350;20.898;2024-03-02T01:59:39;6.80;99.90
36654;DHT22;22650;49.350;20.898;2024-03-02T02:02:14;6.80;99.90
36654;DHT22;22650;49.350;20.898;2024-03-02T02:04:48;6.70;99.90
36654;DHT22;22650;49.350;20.898;2024-03-02T02:07:21;6.70;99.90
36654;DHT22;22650;49.350;20.898;2024-03-02T02:09:55;6.70;99.90
36654;DHT22;22650;49.350;20.898;2024-03-02T02:12:28;6.70;99.90
36654;DHT22;22650;49.350;20.898;2024-03-02T02:15:02;6.60;99.90
36654;DHT22;22650;49.350;20.898;2024-03-02T02:17:39;6.60;99.90
36654;DHT22;22650;49.350;20.898;2024-03-02T02:20:12;6.60;99.90
36654;DHT22;22650;49.350;20.898;2024-03-02T02:22:57;6.60;99.90
36654;DHT22;22650;49.350;20.898;2024-03-02T02:25:31;6.50;99.90
36654;DHT22;22650;49.350;20.898;2024-03-02T02:28:05;6.50;99.90
36654;DHT22;22650;49.350;20.898;2024-03-02T02:30:38;6.40;99.90
36654;DHT22;22650;49.350;20.898;2024-03-02T02:33:12;6.40;99.90
36654;DHT22;22650;49.350;20.898;2024-03-02T02:35:46;6.40;99.90
36654;DHT22;22650;49.350;20.898;2024-03-02T02:38:21;6.30;99.90
36654;DHT22;22650;49.350;20.898;2024-03-02T02:40:54;6.30;99.90
36654;DHT22;22650;49.350;20.898;2024-03-02T02:43:28;6.30;99.90
36654;DHT22;22650;49.350;20.898;2024-03-02T02:46:01;6.30;99.90
36654;DHT22;22650;49.350;20.898;2024-03-02T02:48:35;6.30;99.90
36654;DHT22;22650;49.350;20.898;2024-03-02T02:51:09;6.20;99.90
36654;DHT22;22650;49.350;20.898;2024-03-02T02:53:44;6.20;99.90
36654;DHT22;22650;49.350;20.898;2024-03-02T02:56:18;6.10;99.90
36654;DHT22;22650;49.350;20.898;2024-03-02T02:58:51;6.10;99.90
36654;DHT22;22650;49.350;20.898;2024-03-02T03:01:25;6.10;99.90
36654;DHT22;22650;49.350;20.898;2024-03-02T03:03:59;6.10;99.90
36654;DHT22;22650;49.350;20.898;2024-03-02T03:06:33;6.20;99.90
36654;DHT22;22650;49.350;20.898;2024-03-02T03:09:07;6.10;99.90
36654;DHT22;22650;49.350;20.898;2024-03-02T03:11:43;6.10;99.90
36654;DHT22;22650;49.350;20.898;2024-03-02T03:14:17;6.10;99.90
36654;DHT22;22650;49.350;20.898;2024-03-02T03:16:50;6.00;99.90
36654;DHT22;22650;49.350;20.898;2024-03-02T03:19:24;6.00;99.90
36654;DHT22;22650;49.350;20.898;2024-03-02T03:21:58;6.00;99.90
36654;DHT22;22650;49.350;20.898;2024-03-02T03:24:33;6.00;99.90
36654;DHT22;22650;49.350;20.898;2024-03-02T03:27:07;6.00;99.90
36654;DHT22;22650;49.350;20.898;2024-03-02T03:29:40;6.00;99.90
36654;DHT22;22650;49.350;20.898;2024-03-02T03:32:14;6.00;99.90
36654;DHT22;22650;49.350;20.898;2024-03-02T03:34:48;6.00;99.90
36654;DHT22;22650;49.350;20.898;2024-03-02T03:37:22;5.90;99.90
36654;DHT22;22650;49.350;20.898;2024-03-02T03:39:57;5.90;99.90
36654;DHT22;22650;49.350;20.898;2024-03-02T03:42:31;5.90;99.90
36654;DHT22;22650;49.350;20.898;2024-03-02T03:45:05;5.90;99.90
36654;DHT22;22650;49.350;20.898;2024-03-02T03:47:39;5.90;99.90
36654;DHT22;22650;49.350;20.898;2024-03-02T03:50:13;5.90;99.90
36654;DHT22;22650;49.350;20.898;2024-03-02T03:52:46;5.80;99.90
36654;DHT22;22650;49.350;20.898;2024-03-02T03:55:21;5.80;99.90
36654;DHT22;22650;49.350;20.898;2024-03-02T03:57:55;5.90;99.90
36654;DHT22;22650;49.350;20.898;2024-03-02T04:00:28;5.80;99.90
36654;DHT22;22650;49.350;20.898;2024-03-02T04:03:02;5.80;99.90
36654;DHT22;22650;49.350;20.898;2024-03-02T04:05:36;5.80;99.90
36654;DHT22;22650;49.350;20.898;2024-03-02T04:08:10;5.80;99.90
36654;DHT22;22650;49.350;20.898;2024-03-02T04:10:45;5.80;99.90
36654;DHT22;22650;49.350;20.898;2024-03-02T04:13:19;5.80;99.90
36654;DHT22;22650;49.350;20.898;2024-03-02T04:15:53;5.80;99.90
36654;DHT22;22650;49.350;20.898;2024-03-02T04:18:27;5.80;99.90
36654;DHT22;22650;49.350;20.898;2024-03-02T04:21:00;5.70;99.90
36654;DHT22;22650;49.350;20.898;2024-03-02T04:23:34;5.70;99.90
36654;DHT22;22650;49.350;20.898;2024-03-02T04:26:09;5.70;99.90
36654;DHT22;22650;49.350;20.898;2024-03-02T04:28:42;5.70;99.90
36654;DHT22;22650;49.350;20.898;2024-03-02T04:31:16;5.70;99.90
36654;DHT22;22650;49.350;20.898;2024-03-02T04:33:49;5.70;99.90
36654;DHT22;22650;49.350;20.898;2024-03-02T04:36:23;5.70;99.90
36654;DHT22;22650;49.350;20.898;2024-03-02T04:38:57;5.70;99.90
36654;DHT22;22650;49.350;20.898;2024-03-02T04:41:32;5.70;99.90
36654;DHT22;22650;49.350;20.898;2024-03-02T04:44:05;5.60;99.90
36654;DHT22;22650;49.350;20.898;2024-03-02T04:46:40;5.60;99.90
36654;DHT22;22650;49.350;20.898;2024-03-02T04:49:17;5.60;99.90
36654;DHT22;22650;49.350;20.898;2024-03-02T04:51:50;5.60;99.90
36654;DHT22;22650;49.350;20.898;2024-03-02T04:54:24;5.60;99.90
36654;DHT22;22650;49.350;20.898;2024-03-02T04:57:00;5.60;99.90
36654;DHT22;22650;49.350;20.898;2024-03-02T04:59:33;5.60;99.90
36654;DHT22;22650;49.350;20.898;2024-03-02T05:02:07;5.60;99.90
36654;DHT22;22650;49.350;20.898;2024-03-02T05:04:40;5.60;99.90
36654;DHT22;22650;49.350;20.898;2024-03-02T05:07:14;5.60;99.90
36654;DHT22;22650;49.350;20.898;2024-03-02T05:09:48;5.60;99.90
36654;DHT22;22650;49.350;20.898;2024-03-02T05:12:23;5.60;99.90
36654;DHT22;22650;49.350;20.898;2024-03-02T05:15:19;5.60;99.90
36654;DHT22;22650;49.350;20.898;2024-03-02T05:17:52;5.50;99.90
36654;DHT22;22650;49.350;20.898;2024-03-02T05:20:25;5.50;99.90
36654;DHT22;22650;49.350;20.898;2024-03-02T05:22:59;5.60;99.90
36654;DHT22;22650;49.350;20.898;2024-03-02T05:25:32;5.50;99.90
36654;DHT22;22650;49.350;20.898;2024-03-02T05:28:09;5.50;99.90
36654;DHT22;22650;49.350;20.898;2024-03-02T05:30:43;5.60;99.90
36654;DHT22;22650;49.350;20.898;2024-03-02T05:33:16;5.60;99.90
36654;DHT22;22650;49.350;20.898;2024-03-02T05:35:50;5.50;99.90
36654;DHT22;22650;49.350;20.898;2024-03-02T05:38:24;5.50;99.90
36654;DHT22;22650;49.350;20.898;2024-03-02T05:40:57;5.60;99.90
36654;DHT22;22650;49.350;20.898;2024-03-02T05:43:32;5.50;99.90
36654;DHT22;22650;49.350;20.898;2024-03-02T05:46:06;5.60;99.90
36654;DHT22;22650;49.350;20.898;2024-03-02T05:48:39;5.60;99.90
36654;DHT22;22650;49.350;20.898;2024-03-02T05:51:13;5.60;99.90
36654;DHT22;22650;49.350;20.898;2024-03-02T05:53:47;5.60;99.90
36654;DHT22;22650;49.350;20.898;2024-03-02T05:56:20;5.70;99.90
36654;DHT22;22650;49.350;20.898;2024-03-02T05:58:55;5.70;99.90
36654;DHT22;22650;49.350;20.898;2024-03-02T06:01:41;5.70;99.90
36654;DHT22;22650;49.350;20.898;2024-03-02T06:04:15;5.70;99.90
36654;DHT22;22650;49.350;20.898;2024-03-02T06:06:49;5.80;99.90
36654;DHT22;22650;49.350;20.898;2024-03-02T06:09:22;5.80;99.90
36654;DHT22;22650;49.350;20.898;2024-03-02T06:11:57;5.80;99.90
36654;DHT22;22650;49.350;20.898;2024-03-02T06:14:32;5.80;99.90
36654;DHT22;22650;49.350;20.898;2024-03-02T06:17:05;5.80;99.90
36654;DHT22;22650;49.350;20.898;2024-03-02T06:19:39;5.90;99.90
36654;DHT22;22650;49.350;20.898;2024-03-02T06:22:12;5.90;99.90
36654;DHT22;22650;49.350;20.898;2024-03-02T06:24:46;5.90;99.90
36654;DHT22;22650;49.350;20.898;2024-03-02T06:27:20;6.00;99.90
36654;DHT22;22650;49.350;20.898;2024-03-02T06:29:55;6.00;99.90
36654;DHT22;22650;49.350;20.898;2024-03-02T06:32:28;6.00;99.90
36654;DHT22;22650;49.350;20.898;2024-03-02T06:35:02;6.10;99.90
36654;DHT22;22650;49.350;20.898;2024-03-02T06:37:38;6.10;99.90
36654;DHT22;22650;49.350;20.898;2024-03-02T06:40:12;6.20;99.90
36654;DHT22;22650;49.350;20.898;2024-03-02T06:42:46;6.30;99.90
36654;DHT22;22650;49.350;20.898;2024-03-02T06:45:21;6.30;99.90
36654;DHT22;22650;49.350;20.898;2024-03-02T06:47:55;6.40;99.90
36654;DHT22;22650;49.350;20.898;2024-03-02T06:50:28;6.40;99.90
36654;DHT22;22650;49.350;20.898;2024-03-02T06:53:03;6.50;99.90
36654;DHT22;22650;49.350;20.898;2024-03-02T06:55:37;6.50;99.90
36654;DHT22;22650;49.350;20.898;2024-03-02T06:58:11;6.60;99.90
36654;DHT22;22650;49.350;20.898;2024-03-02T07:00:49;6.60;99.90
36654;DHT22;22650;49.350;20.898;2024-03-02T07:03:35;6.70;99.90
36654;DHT22;22650;49.350;20.898;2024-03-02T07:06:11;6.70;99.90
36654;DHT22;22650;49.350;20.898;2024-03-02T07:08:45;6.80;99.90
36654;DHT22;22650;49.350;20.898;2024-03-02T07:11:19;6.80;99.90
36654;DHT22;22650;49.350;20.898;2024-03-02T07:13:53;6.90;99.90
36654;DHT22;22650;49.350;20.898;2024-03-02T07:16:28;7.00;99.90
36654;DHT22;22650;49.350;20.898;2024-03-02T07:19:02;7.00;99.90
36654;DHT22;22650;49.350;20.898;2024-03-02T07:21:35;7.10;99.90
36654;DHT22;22650;49.350;20.898;2024-03-02T07:24:09;7.10;99.90
36654;DHT22;22650;49.350;20.898;2024-03-02T07:26:45;7.20;99.90
36654;DHT22;22650;49.350;20.898;2024-03-02T07:29:22;7.20;99.90
36654;DHT22;22650;49.350;20.898;2024-03-02T07:31:57;7.30;99.90
36654;DHT22;22650;49.350;20.898;2024-03-02T07:34:31;7.30;99.90
36654;DHT22;22650;49.350;20.898;2024-03-02T07:37:05;7.40;99.90
36654;DHT22;22650;49.350;20.898;2024-03-02T07:39:39;7.50;99.90
36654;DHT22;22650;49.350;20.898;2024-03-02T07:42:13;7.50;99.90
36654;DHT22;22650;49.350;20.898;2024-03-02T07:44:47;7.60;99.90
36654;DHT22;22650;49.350;20.898;2024-03-02T07:47:22;7.60;99.90
36654;DHT22;22650;49.350;20.898;2024-03-02T07:49:55;7.70;99.90
36654;DHT22;22650;49.350;20.898;2024-03-02T07:52:29;7.80;99.90
36654;DHT22;22650;49.350;20.898;2024-03-02T07:55:03;7.80;99.90
36654;DHT22;22650;49.350;20.898;2024-03-02T07:57:37;7.90;99.90
36654;DHT22;22650;49.350;20.898;2024-03-02T08:00:11;7.90;99.90
36654;DHT22;22650;49.350;20.898;2024-03-02T08:02:48;7.90;99.90
36654;DHT22;22650;49.350;20.898;2024-03-02T08:05:23;7.90;99.90
36654;DHT22;22650;49.350;20.898;2024-03-02T08:07:57;8.00;99.90
36654;DHT22;22650;49.350;20.898;2024-03-02T08:10:30;8.10;99.90
36654;DHT22;22650;49.350;20.898;2024-03-02T08:13:06;8.20;99.90
36654;DHT22;22650;49.350;20.898;2024-03-02T08:15:39;8.30;99.90
36654;DHT22;22650;49.350;20.898;2024-03-02T08:18:15;8.40;99.90
36654;DHT22;22650;49.350;20.898;2024-03-02T08:20:48;8.50;99.90
36654;DHT22;22650;49.350;20.898;2024-03-02T08:23:22;8.60;99.90
36654;DHT22;22650;49.350;20.898;2024-03-02T08:25:55;8.60;99.90
36654;DHT22;22650;49.350;20.898;2024-03-02T08:28:29;8.70;99.90
36654;DHT22;22650;49.350;20.898;2024-03-02T08:31:02;8.80;99.90
36654;DHT22;22650;49.350;20.898;2024-03-02T08:33:38;8.90;99.90
36654;DHT22;22650;49.350;20.898;2024-03-02T08:36:12;9.00;99.90
36654;DHT22;22650;49.350;20.898;2024-03-02T08:38:46;9.10;99.90
36654;DHT22;22650;49.350;20.898;2024-03-02T08:41:21;9.20;99.90
36654;DHT22;22650;49.350;20.898;2024-03-02T08:43:55;9.30;99.90
36654;DHT22;22650;49.350;20.898;2024-03-02T08:46:29;9.40;99.90
36654;DHT22;22650;49.350;20.898;2024-03-02T08:49:04;9.50;99.90
36654;DHT22;22650;49.350;20.898;2024-03-02T08:51:37;9.60;99.90
36654;DHT22;22650;49.350;20.898;2024-03-02T08:54:11;9.70;99.90
36654;DHT22;22650;49.350;20.898;2024-03-02T08:56:44;9.70;99.90
36654;DHT22;22650;49.350;20.898;2024-03-02T08:59:18;9.80;99.90
36654;DHT22;22650;49.350;20.898;2024-03-02T09:01:52;9.90;99.90
36654;DHT22;22650;49.350;20.898;2024-03-02T09:04:28;10.00;99.90
36654;DHT22;22650;49.350;20.898;2024-03-02T09:07:06;10.10;99.90
36654;DHT22;22650;49.350;20.898;2024-03-02T09:09:39;10.20;99.90
36654;DHT22;22650;49.350;20.898;2024-03-02T09:12:13;10.30;99.90
36654;DHT22;22650;49.350;20.898;2024-03-02T09:14:47;10.40;99.90
36654;DHT22;22650;49.350;20.898;2024-03-02T09:17:20;10.50;99.90
36654;DHT22;22650;49.350;20.898;2024-03-02T09:19:55;10.60;99.90
36654;DHT22;22650;49.350;20.898;2024-03-02T09:22:29;10.70;99.90
36654;DHT22;22650;49.350;20.898;2024-03-02T09:25:04;10.80;99.90
36654;DHT22;22650;49.350;20.898;2024-03-02T09:27:39;11.00;99.90
36654;DHT22;22650;49.350;20.898;2024-03-02T09:30:13;11.10;99.90
36654;DHT22;22650;49.350;20.898;2024-03-02T09:32:47;11.20;99.90
36654;DHT22;22650;49.350;20.898;2024-03-02T09:35:24;11.30;99.90
36654;DHT22;22650;49.350;20.898;2024-03-02T09:37:57;11.40;99.90
36654;DHT22;22650;49.350;20.898;2024-03-02T09:40:31;11.50;99.90
36654;DHT22;22650;49.350;20.898;2024-03-02T09:43:05;11.50;99.90
36654;DHT22;22650;49.350;20.898;2024-03-02T09:45:39;11.60;99.90
36654;DHT22;22650;49.350;20.898;2024-03-02T09:48:13;11.70;99.90
36654;DHT22;22650;49.350;20.898;2024-03-02T09:50:48;11.90;99.90
36654;DHT22;22650;49.350;20.898;2024-03-02T09:53:22;12.00;99.90
36654;DHT22;22650;49.350;20.898;2024-03-02T09:55:56;12.10;99.90
36654;DHT22;22650;49.350;20.898;2024-03-02T09:58:30;12.20;99.90
36654;DHT22;22650;49.350;20.898;2024-03-02T10:01:05;12.20;99.90
36654;DHT22;22650;49.350;20.898;2024-03-02T10:03:39;12.40;99.90
36654;DHT22;22650;49.350;20.898;2024-03-02T10:06:23;12.40;99.90
36654;DHT22;22650;49.350;20.898;2024-03-02T10:08:57;12.60;99.90
36654;DHT22;22650;49.350;20.898;2024-03-02T10:11:31;12.70;99.90
36654;DHT22;22650;49.350;20.898;2024-03-02T10:14:07;12.80;99.90
36654;DHT22;22650;49.350;20.898;2024-03-02T10:16:42;13.00;99.90
36654;DHT22;22650;49.350;20.898;2024-03-02T10:19:17;13.10;99.90
36654;DHT22;22650;49.350;20.898;2024-03-02T10:21:53;13.30;99.90
36654;DHT22;22650;49.350;20.898;2024-03-02T10:24:27;13.40;99.90
36654;DHT22;22650;49.350;20.898;2024-03-02T10:27:01;13.50;99.90
36654;DHT22;22650;49.350;20.898;2024-03-02T10:29:37;13.60;99.90
36654;DHT22;22650;49.350;20.898;2024-03-02T10:32:12;13.80;99.90
36654;DHT22;22650;49.350;20.898;2024-03-02T10:34:46;13.90;99.90
36654;DHT22;22650;49.350;20.898;2024-03-02T10:37:21;14.00;99.90
36654;DHT22;22650;49.350;20.898;2024-03-02T10:39:55;14.20;99.90
36654;DHT22;22650;49.350;20.898;2024-03-02T10:42:29;14.30;99.90
36654;DHT22;22650;49.350;20.898;2024-03-02T10:45:03;14.40;99.90
36654;DHT22;22650;49.350;20.898;2024-03-02T10:47:37;14.60;99.90
36654;DHT22;22650;49.350;20.898;2024-03-02T10:50:11;14.70;99.90
36654;DHT22;22650;49.350;20.898;2024-03-02T10:52:46;14.80;99.90
36654;DHT22;22650;49.350;20.898;2024-03-02T10:55:19;14.90;99.90
36654;DHT22;22650;49.350;20.898;2024-03-02T10:57:54;15.10;99.90
36654;DHT22;22650;49.350;20.898;2024-03-02T11:00:33;15.00;99.90
36654;DHT22;22650;49.350;20.898;2024-03-02T11:03:07;15.10;99.90
36654;DHT22;22650;49.350;20.898;2024-03-02T11:05:44;15.20;99.90
36654;DHT22;22650;49.350;20.898;2024-03-02T11:08:20;15.40;99.90
36654;DHT22;22650;49.350;20.898;2024-03-02T11:10:58;15.60;99.90
36654;DHT22;22650;49.350;20.898;2024-03-02T11:13:37;15.70;99.90
36654;DHT22;22650;49.350;20.898;2024-03-02T11:16:21;15.80;99.90
36654;DHT22;22650;49.350;20.898;2024-03-02T11:18:57;15.90;99.90
36654;DHT22;22650;49.350;20.898;2024-03-02T11:21:32;15.90;98.80
36654;DHT22;22650;49.350;20.898;2024-03-02T11:24:29;16.00;98.80
36654;DHT22;22650;49.350;20.898;2024-03-02T11:27:09;16.10;97.60
36654;DHT22;22650;49.350;20.898;2024-03-02T11:29:45;16.10;98.70
36654;DHT22;22650;49.350;20.898;2024-03-02T11:32:21;16.20;99.90
36654;DHT22;22650;49.350;20.898;2024-03-02T11:34:56;16.30;98.70
36654;DHT22;22650;49.350;20.898;2024-03-02T11:37:30;16.30;96.20
36654;DHT22;22650;49.350;20.898;2024-03-02T11:40:07;16.30;94.40
36654;DHT22;22650;49.350;20.898;2024-03-02T11:42:43;16.10;91.90
36654;DHT22;22650;49.350;20.898;2024-03-02T11:45:16;16.20;94.10
36654;DHT22;22650;49.350;20.898;2024-03-02T11:47:51;16.20;94.20
36654;DHT22;22650;49.350;20.898;2024-03-02T11:50:29;16.10;93.10
36654;DHT22;22650;49.350;20.898;2024-03-02T11:53:04;16.10;92.30
36654;DHT22;22650;49.350;20.898;2024-03-02T11:55:41;15.90;92.70
36654;DHT22;22650;49.350;20.898;2024-03-02T11:58:19;16.00;93.40
36654;DHT22;22650;49.350;20.898;2024-03-02T12:00:56;16.00;93.30
36654;DHT22;22650;49.350;20.898;2024-03-02T12:03:32;16.00;92.90
36654;DHT22;22650;49.350;20.898;2024-03-02T12:06:07;15.90;93.30
36654;DHT22;22650;49.350;20.898;2024-03-02T12:08:41;15.90;93.00
36654;DHT22;22650;49.350;20.898;2024-03-02T12:11:16;15.90;93.50
36654;DHT22;22650;49.350;20.898;2024-03-02T12:13:54;15.90;92.80
36654;DHT22;22650;49.350;20.898;2024-03-02T12:16:29;15.80;92.30
36654;DHT22;22650;49.350;20.898;2024-03-02T12:19:03;15.70;92.20
36654;DHT22;22650;49.350;20.898;2024-03-02T12:21:36;15.60;92.50
36654;DHT22;22650;49.350;20.898;2024-03-02T12:24:11;15.60;93.40
36654;DHT22;22650;49.350;20.898;2024-03-02T12:26:46;15.60;94.30
36654;DHT22;22650;49.350;20.898;2024-03-02T12:29:20;15.70;94.50
36654;DHT22;22650;49.350;20.898;2024-03-02T12:31:54;15.60;93.20
36654;DHT22;22650;49.350;20.898;2024-03-02T12:34:28;15.60;93.30
36654;DHT22;22650;49.350;20.898;2024-03-02T12:37:01;15.60;93.50
36654;DHT22;22650;49.350;20.898;2024-03-02T12:39:35;15.60;93.70
36654;DHT22;22650;49.350;20.898;2024-03-02T12:42:10;15.70;93.30
36654;DHT22;22650;49.350;20.898;2024-03-02T12:44:44;15.70;92.90
36654;DHT22;22650;49.350;20.898;2024-03-02T12:47:17;15.70;94.40
36654;DHT22;22650;49.350;20.898;2024-03-02T12:49:51;15.80;93.10
36654;DHT22;22650;49.350;20.898;2024-03-02T12:52:25;15.80;93.00
36654;DHT22;22650;49.350;20.898;2024-03-02T12:54:59;15.80;92.70
36654;DHT22;22650;49.350;20.898;2024-03-02T12:57:34;15.80;92.40
36654;DHT22;22650;49.350;20.898;2024-03-02T13:00:10;15.70;91.90
36654;DHT22;22650;49.350;20.898;2024-03-02T13:02:46;15.80;92.90
36654;DHT22;22650;49.350;20.898;2024-03-02T13:05:20;15.80;92.30
36654;DHT22;22650;49.350;20.898;2024-03-02T13:07:55;15.80;93.00
36654;DHT22;22650;49.350;20.898;2024-03-02T13:10:28;15.90;92.70
36654;DHT22;22650;49.350;20.898;2024-03-02T13:13:03;15.90;93.30
36654;DHT22;22650;49.350;20.898;2024-03-02T13:15:38;15.90;91.10
36654;DHT22;22650;49.350;20.898;2024-03-02T13:18:12;15.80;91.10
36654;DHT22;22650;49.350;20.898;2024-03-02T13:20:46;15.70;91.30
36654;DHT22;22650;49.350;20.898;2024-03-02T13:23:20;15.70;91.30
36654;DHT22;22650;49.350;20.898;2024-03-02T13:25:54;15.70;92.10
36654;DHT22;22650;49.350;20.898;2024-03-02T13:28:29;15.80;93.00
36654;DHT22;22650;49.350;20.898;2024-03-02T13:31:03;15.80;91.90
36654;DHT22;22650;49.350;20.898;2024-03-02T13:33:38;15.80;90.90
36654;DHT22;22650;49.350;20.898;2024-03-02T13:36:11;15.70;91.30
36654;DHT22;22650;49.350;20.898;2024-03-02T13:38:45;15.60;91.50
36654;DHT22;22650;49.350;20.898;2024-03-02T13:41:19;15.50;91.30
36654;DHT22;22650;49.350;20.898;2024-03-02T13:43:54;15.40;91.50
36654;DHT22;22650;49.350;20.898;2024-03-02T13:46:28;15.30;92.10
36654;DHT22;22650;49.350;20.898;2024-03-02T13:49:01;15.30;92.90
36654;DHT22;22650;49.350;20.898;2024-03-02T13:51:36;15.20;91.40
36654;DHT22;22650;49.350;20.898;2024-03-02T13:54:09;15.10;92.30
36654;DHT22;22650;49.350;20.898;2024-03-02T13:56:44;15.10;93.20
36654;DHT22;22650;49.350;20.898;2024-03-02T13:59:21;15.00;92.30
36654;DHT22;22650;49.350;20.898;2024-03-02T14:01:55;14.90;92.70
36654;DHT22;22650;49.350;20.898;2024-03-02T14:04:29;14.90;93.40
36654;DHT22;22650;49.350;20.898;2024-03-02T14:07:03;14.90;93.80
36654;DHT22;22650;49.350;20.898;2024-03-02T14:09:39;14.90;93.90
36654;DHT22;22650;49.350;20.898;2024-03-02T14:12:12;14.90;94.30
36654;DHT22;22650;49.350;20.898;2024-03-02T14:14:48;14.90;94.40
36654;DHT22;22650;49.350;20.898;2024-03-02T14:17:23;14.90;95.30
36654;DHT22;22650;49.350;20.898;2024-03-02T14:19:56;14.90;95.30
36654;DHT22;22650;49.350;20.898;2024-03-02T14:22:31;14.90;95.40
36654;DHT22;22650;49.350;20.898;2024-03-02T14:25:06;15.00;95.50
36654;DHT22;22650;49.350;20.898;2024-03-02T14:27:40;15.00;96.30
36654;DHT22;22650;49.350;20.898;2024-03-02T14:30:35;15.10;97.20
36654;DHT22;22650;49.350;20.898;2024-03-02T14:33:09;15.10;96.90
36654;DHT22;22650;49.350;20.898;2024-03-02T14:35:44;15.10;97.20
36654;DHT22;22650;49.350;20.898;2024-03-02T14:38:18;15.10;97.40
36654;DHT22;22650;49.350;20.898;2024-03-02T14:40:52;15.10;96.20
36654;DHT22;22650;49.350;20.898;2024-03-02T14:43:26;15.10;95.70
36654;DHT22;22650;49.350;20.898;2024-03-02T14:46:01;15.00;95.40
36654;DHT22;22650;49.350;20.898;2024-03-02T14:48:35;14.90;96.30
36654;DHT22;22650;49.350;20.898;2024-03-02T14:51:09;14.90;96.10
36654;DHT22;22650;49.350;20.898;2024-03-02T14:53:42;14.90;96.60
36654;DHT22;22650;49.350;20.898;2024-03-02T14:56:16;14.80;97.50
36654;DHT22;22650;49.350;20.898;2024-03-02T14:58:49;14.80;97.50
36654;DHT22;22650;49.350;20.898;2024-03-02T15:01:24;14.70;98.10
36654;DHT22;22650;49.350;20.898;2024-03-02T15:03:58;14.60;98.50
36654;DHT22;22650;49.350;20.898;2024-03-02T15:06:32;14.60;98.60
36654;DHT22;22650;49.350;20.898;2024-03-02T15:09:06;14.50;99.20
36654;DHT22;22650;49.350;20.898;2024-03-02T15:11:40;14.50;99.70
36654;DHT22;22650;49.350;20.898;2024-03-02T15:14:19;14.50;99.90
36654;DHT22;22650;49.350;20.898;2024-03-02T15:16:55;14.40;99.90
36654;DHT22;22650;49.350;20.898;2024-03-02T15:19:29;14.40;99.90
36654;DHT22;22650;49.350;20.898;2024-03-02T15:22:03;14.40;99.90
36654;DHT22;22650;49.350;20.898;2024-03-02T15:24:38;14.30;99.90
36654;DHT22;22650;49.350;20.898;2024-03-02T15:27:12;14.20;99.90
36654;DHT22;22650;49.350;20.898;2024-03-02T15:29:45;14.20;99.90
36654;DHT22;22650;49.350;20.898;2024-03-02T15:32:21;14.10;99.90
36654;DHT22;22650;49.350;20.898;2024-03-02T15:34:58;14.00;99.90
36654;DHT22;22650;49.350;20.898;2024-03-02T15:37:33;14.10;99.90
36654;DHT22;22650;49.350;20.898;2024-03-02T15:40:08;14.00;99.90
36654;DHT22;22650;49.350;20.898;2024-03-02T15:42:42;14.00;99.90
36654;DHT22;22650;49.350;20.898;2024-03-02T15:45:15;13.90;99.90
36654;DHT22;22650;49.350;20.898;2024-03-02T15:47:50;13.90;99.90
36654;DHT22;22650;49.350;20.898;2024-03-02T15:50:25;13.80;99.90
36654;DHT22;22650;49.350;20.898;2024-03-02T15:53:01;13.80;99.90
36654;DHT22;22650;49.350;20.898;2024-03-02T15:55:38;13.70;99.90
36654;DHT22;22650;49.350;20.898;2024-03-02T15:58:12;13.60;99.90
36654;DHT22;22650;49.350;20.898;2024-03-02T16:00:46;13.50;99.90
36654;DHT22;22650;49.350;20.898;2024-03-02T16:03:21;13.40;99.90
36654;DHT22;22650;49.350;20.898;2024-03-02T16:05:55;13.40;99.90
36654;DHT22;22650;49.350;20.898;2024-03-02T16:08:29;13.30;99.90
36654;DHT22;22650;49.350;20.898;2024-03-02T16:11:02;13.20;99.90